createdAt,value
2023-06-30T00:01:54.384Z,6.43
2023-06-30T00:04:23.862Z,6.43
2023-06-30T00:06:52.312Z,6.50
2023-06-30T00:09:23.002Z,4.65
2023-06-30T00:11:54.604Z,9.95
2023-06-30T00:14:22.971Z,4.88
2023-06-30T00:16:51.081Z,9.40
2023-06-30T00:19:20.108Z,6.95
2023-06-30T00:21:49.522Z,8.02
2023-06-30T00:24:17.116Z,5.97
2023-06-30T00:26:44.598Z,8.25
2023-06-30T00:29:13.135Z,6.68
2023-06-30T00:31:40.672Z,7.03
2023-06-30T00:34:08.304Z,6.25
2023-06-30T00:36:35.799Z,4.97
2023-06-30T00:39:04.021Z,5.78
2023-06-30T00:41:31.563Z,7.70
2023-06-30T00:43:59.572Z,5.10
2023-06-30T00:46:27.316Z,6.22
2023-06-30T00:48:56.680Z,7.45
2023-06-30T00:51:24.313Z,6.47
2023-06-30T00:53:51.848Z,7.82
2023-06-30T00:56:19.748Z,7.05
2023-06-30T00:58:47.297Z,8.88
2023-06-30T01:01:23.586Z,6.15
2023-06-30T01:03:58.277Z,6.57
2023-06-30T01:06:49.031Z,6.82
2023-06-30T01:09:19.429Z,8.68
2023-06-30T01:11:48.157Z,7.28
2023-06-30T01:14:17.540Z,6.60
2023-06-30T01:16:45.881Z,5.80
2023-06-30T01:19:37.173Z,6.05
2023-06-30T01:22:06.653Z,5.78
2023-06-30T01:24:36.145Z,6.93
2023-06-30T01:27:04.194Z,5.80
2023-06-30T01:29:32.410Z,9.90
2023-06-30T01:32:00.372Z,6.07
2023-06-30T01:34:27.949Z,5.95
2023-06-30T01:36:56.400Z,6.50
2023-06-30T01:39:23.925Z,8.52
2023-06-30T01:41:51.506Z,4.90
2023-06-30T01:44:19.381Z,8.00
2023-06-30T01:46:47.407Z,6.82
2023-06-30T01:49:15.038Z,8.23
2023-06-30T01:51:42.593Z,6.15
2023-06-30T01:54:10.069Z,9.05
2023-06-30T01:56:37.649Z,7.47
2023-06-30T01:59:05.104Z,8.07
2023-06-30T02:01:32.687Z,12.32
2023-06-30T02:04:00.234Z,7.40
2023-06-30T02:06:27.799Z,8.20
2023-06-30T02:08:55.303Z,7.38
2023-06-30T02:11:22.986Z,8.95
2023-06-30T02:13:50.499Z,9.25
2023-06-30T02:16:18.041Z,11.40
2023-06-30T02:18:47.195Z,9.30
2023-06-30T02:21:14.768Z,11.20
2023-06-30T02:23:42.499Z,10.38
2023-06-30T02:26:09.991Z,13.02
2023-06-30T02:28:37.415Z,8.27
2023-06-30T02:31:04.943Z,8.63
2023-06-30T02:33:34.542Z,9.35
2023-06-30T02:36:06.021Z,9.02
2023-06-30T02:38:33.768Z,8.98
2023-06-30T02:41:01.187Z,8.73
2023-06-30T02:43:29.598Z,7.10
2023-06-30T02:45:57.078Z,6.18
2023-06-30T02:48:25.551Z,7.22
2023-06-30T02:50:52.934Z,7.38
2023-06-30T02:53:20.548Z,6.88
2023-06-30T02:55:49.580Z,9.05
2023-06-30T02:58:18.530Z,9.45
2023-06-30T03:00:46.156Z,8.57
2023-06-30T03:03:13.798Z,7.30
2023-06-30T03:05:43.253Z,6.45
2023-06-30T03:08:12.028Z,7.75
2023-06-30T03:10:40.942Z,9.77
2023-06-30T03:13:08.428Z,9.32
2023-06-30T03:15:35.926Z,9.23
2023-06-30T03:18:03.603Z,7.50
2023-06-30T03:20:31.134Z,7.93
2023-06-30T03:22:58.609Z,7.03
2023-06-30T03:25:25.994Z,11.30
2023-06-30T03:27:53.621Z,11.68
2023-06-30T03:30:22.134Z,8.40
2023-06-30T03:32:49.760Z,9.02
2023-06-30T03:35:17.191Z,9.32
2023-06-30T03:37:44.841Z,8.65
2023-06-30T03:40:12.611Z,7.95
2023-06-30T03:42:40.419Z,8.98
2023-06-30T03:45:08.848Z,8.70
2023-06-30T03:47:36.461Z,9.65
2023-06-30T03:50:04.216Z,8.55
2023-06-30T03:52:31.816Z,21.00
2023-06-30T03:54:59.249Z,12.05
2023-06-30T03:57:26.733Z,8.82
2023-06-30T03:59:54.410Z,9.05
2023-06-30T04:02:21.958Z,9.77
2023-06-30T04:04:49.478Z,9.07
2023-06-30T04:07:17.105Z,11.70
2023-06-30T04:09:44.640Z,7.40
2023-06-30T04:12:12.226Z,9.73
2023-06-30T04:14:40.118Z,9.23
2023-06-30T04:17:07.655Z,7.28
2023-06-30T04:19:35.155Z,8.52
2023-06-30T04:22:05.141Z,10.32
2023-06-30T04:24:33.027Z,7.55
2023-06-30T04:27:00.449Z,14.15
2023-06-30T04:29:28.718Z,9.98
2023-06-30T04:31:56.180Z,7.18
2023-06-30T04:34:23.627Z,10.02
2023-06-30T04:36:51.084Z,12.20
2023-06-30T04:39:18.602Z,8.13
2023-06-30T04:41:46.124Z,9.40
2023-06-30T04:44:13.685Z,10.23
2023-06-30T04:46:41.182Z,7.68
2023-06-30T04:49:08.725Z,8.23
2023-06-30T04:51:36.832Z,13.43
2023-06-30T04:54:04.457Z,16.02
2023-06-30T04:56:31.886Z,14.88
2023-06-30T04:58:59.374Z,13.25
2023-06-30T05:01:26.950Z,12.32
2023-06-30T05:03:54.546Z,8.60
2023-06-30T05:06:22.086Z,9.57
2023-06-30T05:08:49.526Z,10.88
2023-06-30T05:11:16.989Z,8.63
2023-06-30T05:13:44.524Z,7.63
2023-06-30T05:16:15.170Z,8.63
2023-06-30T05:18:42.818Z,8.70
2023-06-30T05:21:10.342Z,9.10
2023-06-30T05:23:37.890Z,11.10
2023-06-30T05:26:05.329Z,5.43
2023-06-30T05:28:33.092Z,8.52
2023-06-30T05:31:00.571Z,9.32
2023-06-30T05:33:28.183Z,9.45
2023-06-30T05:35:55.708Z,11.40
2023-06-30T05:38:23.245Z,6.03
2023-06-30T05:40:51.024Z,6.45
2023-06-30T05:43:19.126Z,6.43
2023-06-30T05:45:46.735Z,6.28
2023-06-30T05:48:14.284Z,5.97
2023-06-30T05:50:42.556Z,7.13
2023-06-30T05:53:10.056Z,6.80
2023-06-30T05:55:37.566Z,14.73
2023-06-30T05:58:04.984Z,7.00
2023-06-30T06:00:32.473Z,6.05
2023-06-30T06:03:00.224Z,9.20
2023-06-30T06:05:28.052Z,6.82
2023-06-30T06:07:55.568Z,7.43
2023-06-30T06:10:23.070Z,9.75
2023-06-30T06:12:52.730Z,5.53
2023-06-30T06:15:20.560Z,5.15
2023-06-30T06:17:48.173Z,7.53
2023-06-30T06:20:15.778Z,6.25
2023-06-30T06:22:43.261Z,6.60
2023-06-30T06:25:11.910Z,5.88
2023-06-30T06:27:39.381Z,6.57
2023-06-30T06:30:07.025Z,8.70
2023-06-30T06:32:34.607Z,8.23
2023-06-30T06:35:02.014Z,13.75
2023-06-30T06:37:29.544Z,5.07
2023-06-30T06:39:57.560Z,6.55
2023-06-30T06:42:25.178Z,3.30
2023-06-30T06:44:52.623Z,3.45
2023-06-30T06:47:38.966Z,4.80
2023-06-30T06:50:06.563Z,5.00
2023-06-30T06:52:34.110Z,8.43
2023-06-30T06:55:01.824Z,4.05
2023-06-30T06:57:29.320Z,6.72
2023-06-30T07:00:02.051Z,4.57
2023-06-30T07:02:30.588Z,5.93
2023-06-30T07:04:58.279Z,9.63
2023-06-30T07:07:25.736Z,5.72
2023-06-30T07:09:53.153Z,6.40
2023-06-30T07:12:20.642Z,6.82
2023-06-30T07:14:49.400Z,6.80
2023-06-30T07:17:17.759Z,4.93
2023-06-30T07:19:45.465Z,5.00
2023-06-30T07:22:12.990Z,3.33
2023-06-30T07:24:43.998Z,3.97
2023-06-30T07:27:11.893Z,3.92
2023-06-30T07:29:39.478Z,4.00
2023-06-30T07:32:07.097Z,3.25
2023-06-30T07:34:37.313Z,5.03
2023-06-30T07:37:07.633Z,4.68
2023-06-30T07:39:35.878Z,6.60
2023-06-30T07:42:03.345Z,4.60
2023-06-30T07:44:30.758Z,3.33
2023-06-30T07:46:58.380Z,5.70
2023-06-30T07:49:27.177Z,6.72
2023-06-30T07:51:54.729Z,4.43
2023-06-30T07:54:22.221Z,4.32
2023-06-30T07:56:50.270Z,4.63
2023-06-30T07:59:17.723Z,10.18
2023-06-30T08:01:45.256Z,2.72
2023-06-30T08:04:12.987Z,2.80
2023-06-30T08:06:40.617Z,1.77
2023-06-30T08:09:08.047Z,5.88
2023-06-30T08:11:35.583Z,2.55
2023-06-30T08:14:05.311Z,3.55
2023-06-30T08:16:32.948Z,2.97
2023-06-30T08:19:00.584Z,3.70
2023-06-30T08:21:28.310Z,2.08
2023-06-30T08:23:55.972Z,3.83
2023-06-30T08:26:24.478Z,2.47
2023-06-30T08:28:52.036Z,2.10
2023-06-30T08:31:19.939Z,5.15
2023-06-30T08:33:47.519Z,2.53
2023-06-30T08:36:14.983Z,10.10
2023-06-30T08:38:42.500Z,3.80
2023-06-30T08:41:10.583Z,3.45
2023-06-30T08:43:38.685Z,3.38
2023-06-30T08:46:08.257Z,3.72
2023-06-30T08:48:36.013Z,3.15
2023-06-30T08:51:04.049Z,2.05
2023-06-30T08:53:34.669Z,5.85
2023-06-30T08:56:02.415Z,2.30
2023-06-30T08:58:30.265Z,2.92
2023-06-30T09:00:57.932Z,1.90
2023-06-30T09:03:25.674Z,3.13
2023-06-30T09:05:56.258Z,4.00
2023-06-30T09:08:25.188Z,4.40
2023-06-30T09:10:52.747Z,4.22
2023-06-30T09:13:24.268Z,3.20
2023-06-30T09:15:52.219Z,3.58
2023-06-30T09:18:19.782Z,4.57
2023-06-30T09:20:47.378Z,4.70
2023-06-30T09:23:16.939Z,2.70
2023-06-30T09:25:45.162Z,4.32
2023-06-30T09:28:13.952Z,2.75
2023-06-30T09:30:44.225Z,3.50
2023-06-30T09:33:14.621Z,2.92
2023-06-30T09:35:43.545Z,3.53
2023-06-30T09:38:15.520Z,2.78
2023-06-30T09:40:49.947Z,2.90
2023-06-30T09:43:18.484Z,2.40
2023-06-30T09:45:47.799Z,5.05
2023-06-30T09:48:15.675Z,2.80
2023-06-30T09:50:55.701Z,2.38
2023-06-30T09:53:23.224Z,4.00
2023-06-30T09:55:51.811Z,3.35
2023-06-30T09:58:20.769Z,3.88
2023-06-30T10:00:48.775Z,3.05
2023-06-30T10:03:18.222Z,2.25
2023-06-30T10:05:47.259Z,2.35
2023-06-30T10:08:15.453Z,2.67
2023-06-30T10:10:44.092Z,2.38
2023-06-30T10:13:15.313Z,2.50
2023-06-30T10:15:43.714Z,1.73
2023-06-30T10:18:12.443Z,1.73
2023-06-30T10:20:47.907Z,4.03
2023-06-30T10:23:19.061Z,2.13
2023-06-30T10:25:46.967Z,3.97
2023-06-30T10:28:15.737Z,5.97
2023-06-30T10:30:43.669Z,7.28
2023-06-30T10:33:11.124Z,3.30
2023-06-30T10:35:39.263Z,7.43
2023-06-30T10:38:06.892Z,3.65
2023-06-30T10:40:34.431Z,3.20
2023-06-30T10:43:01.837Z,2.97
2023-06-30T10:45:30.544Z,3.20
2023-06-30T10:47:58.374Z,5.00
2023-06-30T10:50:25.981Z,1.98
2023-06-30T10:52:56.563Z,3.80
2023-06-30T10:55:25.024Z,3.30
2023-06-30T10:57:53.362Z,6.22
2023-06-30T11:00:22.900Z,4.00
2023-06-30T11:03:00.294Z,5.45
2023-06-30T11:05:30.199Z,5.45
2023-06-30T11:08:04.698Z,3.17
2023-06-30T11:10:35.632Z,2.95
2023-06-30T11:13:14.921Z,2.05
2023-06-30T11:15:45.769Z,3.70
2023-06-30T11:18:23.644Z,2.58
2023-06-30T11:21:04.048Z,6.35
2023-06-30T11:23:35.571Z,8.23
2023-06-30T11:26:21.244Z,3.72
2023-06-30T11:28:49.487Z,3.50
2023-06-30T11:31:17.548Z,2.40
2023-06-30T11:33:47.433Z,5.68
2023-06-30T11:36:16.366Z,2.67
2023-06-30T11:38:50.945Z,2.55
2023-06-30T11:41:25.356Z,5.32
2023-06-30T11:43:59.435Z,9.68
2023-06-30T11:46:29.171Z,4.63
2023-06-30T11:48:57.845Z,6.93
2023-06-30T11:51:25.264Z,3.97
2023-06-30T11:53:52.667Z,4.47
2023-06-30T11:56:23.516Z,4.53
2023-06-30T11:58:51.381Z,5.10
2023-06-30T12:01:23.709Z,4.40
2023-06-30T12:04:05.215Z,5.00
2023-06-30T12:06:32.839Z,5.35
2023-06-30T12:09:00.334Z,5.57
2023-06-30T12:11:31.420Z,4.63
2023-06-30T12:13:58.865Z,7.22
2023-06-30T12:16:40.503Z,7.78
2023-06-30T12:19:09.426Z,2.35
2023-06-30T12:21:37.463Z,4.55
2023-06-30T12:24:05.097Z,7.15
2023-06-30T12:26:34.703Z,2.88
2023-06-30T12:29:07.789Z,3.42
2023-06-30T12:31:35.323Z,2.55
2023-06-30T12:34:03.435Z,2.75
2023-06-30T12:36:30.993Z,5.35
2023-06-30T12:38:58.541Z,5.28
2023-06-30T12:41:28.802Z,5.55
2023-06-30T12:43:59.783Z,6.07
2023-06-30T12:46:27.579Z,4.47
2023-06-30T12:48:55.086Z,3.22
2023-06-30T12:51:24.652Z,4.00
2023-06-30T12:53:52.139Z,3.85
2023-06-30T12:56:19.609Z,3.95
2023-06-30T12:58:46.995Z,2.22
2023-06-30T13:01:14.479Z,6.18
2023-06-30T13:03:42.186Z,4.05
2023-06-30T13:06:09.778Z,4.50
2023-06-30T13:08:37.310Z,5.05
2023-06-30T13:11:06.382Z,4.10
2023-06-30T13:13:33.806Z,4.28
2023-06-30T13:16:01.387Z,3.25
2023-06-30T13:18:28.937Z,5.78
2023-06-30T13:21:32.795Z,6.03
2023-06-30T13:24:08.448Z,5.68
2023-06-30T13:26:38.324Z,3.15
2023-06-30T13:29:06.242Z,4.20
2023-06-30T13:31:33.695Z,5.13
2023-06-30T13:34:01.215Z,5.25
2023-06-30T13:36:31.357Z,4.57
2023-06-30T13:38:59.541Z,4.82
2023-06-30T13:41:27.294Z,5.10
2023-06-30T13:44:03.815Z,5.65
2023-06-30T13:46:34.394Z,6.85
2023-06-30T13:49:04.432Z,5.30
2023-06-30T13:51:31.960Z,5.30
2023-06-30T13:53:59.460Z,3.88
2023-06-30T13:56:28.178Z,6.70
2023-06-30T13:58:55.712Z,3.47
2023-06-30T14:01:23.326Z,6.38
2023-06-30T14:03:52.043Z,6.32
2023-06-30T14:06:19.730Z,8.57
2023-06-30T14:08:50.111Z,5.25
2023-06-30T14:11:18.915Z,5.90
2023-06-30T14:13:46.820Z,4.28
2023-06-30T14:16:14.415Z,4.55
2023-06-30T14:18:41.884Z,5.32
2023-06-30T14:21:09.469Z,6.78
2023-06-30T14:23:36.938Z,7.03
2023-06-30T14:26:05.144Z,6.50
2023-06-30T14:28:32.955Z,6.25
2023-06-30T14:31:00.480Z,5.78
2023-06-30T14:33:27.978Z,4.85
2023-06-30T14:35:55.449Z,4.88
2023-06-30T14:38:22.913Z,8.32
2023-06-30T14:40:50.521Z,5.35
2023-06-30T14:43:18.419Z,8.20
2023-06-30T14:49:59.398Z,5.68
2023-06-30T14:52:26.922Z,5.82
2023-06-30T14:54:54.346Z,5.53
2023-06-30T14:57:21.837Z,4.28
2023-06-30T14:59:49.284Z,3.92
2023-06-30T15:02:18.758Z,5.88
2023-06-30T15:04:46.582Z,4.88
2023-06-30T15:07:14.194Z,4.45
2023-06-30T15:09:42.378Z,5.03
2023-06-30T15:12:10.532Z,6.20
2023-06-30T15:14:37.976Z,5.00
2023-06-30T15:17:05.618Z,13.65
2023-06-30T15:19:33.307Z,10.05
2023-06-30T15:22:01.576Z,6.72
2023-06-30T15:24:30.442Z,6.45
2023-06-30T15:27:00.293Z,3.50
2023-06-30T15:29:27.777Z,8.65
2023-06-30T15:31:55.521Z,4.22
2023-06-30T15:34:23.171Z,4.45
2023-06-30T15:36:50.640Z,8.75
2023-06-30T15:39:18.133Z,7.38
2023-06-30T15:41:45.931Z,4.40
2023-06-30T15:44:13.482Z,3.60
2023-06-30T15:46:41.063Z,6.63
2023-06-30T15:51:50.741Z,6.13
2023-06-30T15:54:20.900Z,5.40
2023-06-30T15:56:48.417Z,6.30
2023-06-30T15:59:18.514Z,5.00
2023-06-30T16:01:45.999Z,7.03
2023-06-30T16:04:13.709Z,5.03
2023-06-30T16:06:44.307Z,6.85
2023-06-30T16:09:17.385Z,3.42
2023-06-30T16:11:44.911Z,3.40
2023-06-30T16:14:39.605Z,4.10
2023-06-30T16:17:07.192Z,5.80
2023-06-30T16:19:35.935Z,5.38
2023-06-30T16:22:31.195Z,5.65
2023-06-30T16:25:10.395Z,5.28
2023-06-30T16:27:38.041Z,4.22
2023-06-30T16:30:43.231Z,9.02
2023-06-30T16:33:11.014Z,15.50
2023-06-30T16:35:38.643Z,3.15
2023-06-30T16:38:06.954Z,8.55
2023-06-30T16:40:35.582Z,8.50
2023-06-30T16:43:03.007Z,9.43
2023-06-30T16:45:30.504Z,7.35
2023-06-30T16:47:57.982Z,9.40
2023-06-30T16:50:25.551Z,6.28
2023-06-30T16:52:52.989Z,4.43
2023-06-30T16:55:20.566Z,4.80
2023-06-30T16:57:48.666Z,6.20
2023-06-30T17:00:16.252Z,6.53
2023-06-30T17:02:44.298Z,8.02
2023-06-30T17:05:12.177Z,6.97
2023-06-30T17:07:39.765Z,3.70
2023-06-30T17:10:07.445Z,6.43
2023-06-30T17:12:40.054Z,6.78
2023-06-30T17:15:10.894Z,8.43
2023-06-30T17:17:38.603Z,4.97
2023-06-30T17:20:06.402Z,8.98
2023-06-30T17:22:33.991Z,9.93
2023-06-30T17:25:05.117Z,8.00
2023-06-30T17:27:35.208Z,13.45
2023-06-30T17:30:03.025Z,22.88
2023-06-30T17:35:23.218Z,15.80
2023-06-30T17:37:50.714Z,15.65
2023-06-30T17:40:18.163Z,12.13
2023-06-30T17:42:45.714Z,17.75
2023-06-30T17:45:13.129Z,13.27
2023-06-30T17:47:40.671Z,23.55
2023-06-30T17:50:08.584Z,14.73
2023-06-30T17:52:36.114Z,11.57
2023-06-30T17:55:03.551Z,10.75
2023-06-30T17:57:37.752Z,10.38
2023-06-30T18:00:16.590Z,17.77
2023-06-30T18:02:44.163Z,19.05
2023-06-30T18:05:14.760Z,12.85
2023-06-30T18:07:42.245Z,16.80
2023-06-30T18:10:14.174Z,13.65
2023-06-30T18:12:42.953Z,18.85
2023-06-30T18:15:12.234Z,15.70
2023-06-30T18:17:49.101Z,18.92
2023-06-30T18:27:16.098Z,18.40
2023-06-30T18:29:43.763Z,13.98
2023-06-30T18:32:11.499Z,9.25
2023-06-30T18:34:39.237Z,14.05
2023-06-30T18:37:09.574Z,22.98
2023-06-30T18:39:37.023Z,15.15
2023-06-30T18:42:04.523Z,11.98
2023-06-30T18:44:31.945Z,9.23
2023-06-30T18:47:01.790Z,12.80
2023-06-30T18:49:29.300Z,9.68
2023-06-30T18:51:56.868Z,12.60
2023-06-30T18:54:24.520Z,13.52
2023-06-30T18:56:52.041Z,7.40
2023-06-30T18:59:19.620Z,18.35
2023-06-30T19:01:47.213Z,11.23
2023-06-30T19:04:14.967Z,10.65
2023-06-30T19:06:42.697Z,8.75
2023-06-30T19:09:18.960Z,11.35
2023-06-30T19:11:49.594Z,23.33
2023-06-30T19:14:17.156Z,17.52
2023-06-30T19:16:44.683Z,9.98
2023-06-30T19:19:15.305Z,7.90
2023-06-30T19:21:47.205Z,6.75
2023-06-30T19:24:14.929Z,6.25
2023-06-30T19:26:45.210Z,12.07
2023-06-30T19:29:12.753Z,8.45
2023-06-30T19:31:40.224Z,10.02
2023-06-30T19:34:07.708Z,13.57
2023-06-30T19:36:37.101Z,7.38
2023-06-30T19:39:05.021Z,12.93
2023-06-30T19:41:32.532Z,7.28
2023-06-30T19:43:59.960Z,10.02
2023-06-30T19:46:30.421Z,11.27
2023-06-30T19:48:57.978Z,11.38
2023-06-30T19:51:25.395Z,10.10
2023-06-30T19:53:52.884Z,13.25
2023-06-30T19:56:20.468Z,19.25
2023-06-30T19:58:51.151Z,19.23
2023-06-30T20:01:21.137Z,19.90
2023-06-30T20:03:48.689Z,17.27
2023-06-30T20:06:16.142Z,19.77
2023-06-30T20:08:43.658Z,16.10
2023-06-30T20:11:12.975Z,21.70
2023-06-30T20:13:41.655Z,15.80
2023-06-30T20:16:09.325Z,9.23
2023-06-30T20:18:36.810Z,9.50
2023-06-30T20:21:04.261Z,8.20
2023-06-30T20:23:31.724Z,8.82
2023-06-30T20:25:59.406Z,7.43
2023-06-30T20:28:26.926Z,12.05
2023-06-30T20:30:54.574Z,9.40
2023-06-30T20:33:22.213Z,14.60
2023-06-30T20:35:49.864Z,15.25
2023-06-30T20:38:19.396Z,12.02
2023-06-30T20:40:48.874Z,6.93
2023-06-30T20:43:16.513Z,9.75
2023-06-30T20:45:44.079Z,8.52
2023-06-30T20:48:11.499Z,8.32
2023-06-30T20:50:38.984Z,8.70
2023-06-30T20:53:06.444Z,8.38
2023-06-30T20:55:33.878Z,15.70
2023-06-30T20:58:01.459Z,10.45
2023-06-30T21:00:29.461Z,7.75
2023-06-30T21:02:56.937Z,9.55
2023-06-30T21:05:24.610Z,16.90
2023-06-30T21:07:52.041Z,10.40
2023-06-30T21:10:19.505Z,10.85
2023-06-30T21:12:48.651Z,9.32
2023-06-30T21:15:16.165Z,9.13
2023-06-30T21:17:43.618Z,10.02
2023-06-30T21:20:11.636Z,8.02
2023-06-30T21:22:41.438Z,14.15
2023-06-30T21:25:08.955Z,10.20
2023-06-30T21:27:36.393Z,10.93
2023-06-30T21:30:11.519Z,12.25
2023-06-30T21:32:39.191Z,9.02
2023-06-30T21:35:07.210Z,7.63
2023-06-30T21:37:41.957Z,7.65
2023-06-30T21:42:40.993Z,13.13
2023-06-30T21:45:08.689Z,10.65
2023-06-30T21:47:36.186Z,6.63
2023-06-30T21:50:04.458Z,8.30
2023-06-30T21:52:34.976Z,10.02
2023-06-30T21:55:02.612Z,8.10
2023-06-30T21:57:30.153Z,9.38
2023-06-30T22:00:00.643Z,11.15
2023-06-30T22:02:28.178Z,19.50
2023-06-30T22:04:55.916Z,9.63
2023-06-30T22:07:31.126Z,10.38
2023-06-30T22:09:59.749Z,12.85
2023-06-30T22:12:27.264Z,10.43
2023-06-30T22:14:58.260Z,7.78
2023-06-30T22:17:25.839Z,12.25
2023-06-30T22:19:53.320Z,11.30
2023-06-30T22:22:20.832Z,10.95
2023-06-30T22:24:48.406Z,9.10
2023-06-30T22:27:15.937Z,10.60
2023-06-30T22:29:43.452Z,10.75
2023-06-30T22:32:13.246Z,12.70
2023-06-30T22:34:49.891Z,13.32
2023-06-30T22:37:20.617Z,11.25
2023-06-30T22:39:48.445Z,8.95
2023-06-30T22:42:16.070Z,8.25
2023-06-30T22:44:45.739Z,10.63
2023-06-30T22:47:13.285Z,13.95
2023-06-30T22:49:41.151Z,9.18
2023-06-30T22:52:09.074Z,8.68
2023-06-30T22:54:36.498Z,10.35
2023-06-30T22:57:04.175Z,9.68
2023-06-30T22:59:31.675Z,14.07
2023-06-30T23:01:59.110Z,11.50
2023-06-30T23:04:26.616Z,11.55
2023-06-30T23:06:54.126Z,15.95
2023-06-30T23:09:21.588Z,11.57
2023-06-30T23:11:49.916Z,9.63
2023-06-30T23:14:19.283Z,9.30
2023-06-30T23:16:47.601Z,10.40
2023-06-30T23:19:15.960Z,13.15
2023-06-30T23:21:46.336Z,14.27
2023-06-30T23:24:13.920Z,12.68
2023-06-30T23:26:42.244Z,9.38
2023-06-30T23:29:10.046Z,14.60
2023-06-30T23:31:40.275Z,14.00
2023-06-30T23:34:08.039Z,9.25
2023-06-30T23:36:36.453Z,11.05
2023-06-30T23:39:04.116Z,11.10
2023-06-30T23:41:31.832Z,10.68
2023-06-30T23:43:59.365Z,11.18
2023-06-30T23:46:26.943Z,9.65
2023-06-30T23:48:54.447Z,9.07
2023-06-30T23:51:21.990Z,13.90
2023-06-30T23:53:49.505Z,12.43
2023-06-30T23:56:16.994Z,9.65
2023-06-30T23:58:44.520Z,12.85
